sensor_id;sensor_type;location;lat;lon;timestamp;pressure;altitude;pressure_sealevel;temperature
23208;BMP180;11773;52.570;13.052;2023-04-15T00:02:19;100307.00;;;14.80
23208;BMP180;11773;52.570;13.052;2023-04-15T00:04:49;100317.00;;;14.80
23208;BMP180;11773;52.570;13.052;2023-04-15T00:07:19;100301.00;;;14.80
23208;BMP180;11773;52.570;13.052;2023-04-15T00:09:48;100314.00;;;14.80
23208;BMP180;11773;52.570;13.052;2023-04-15T00:12:20;100309.00;;;14.80
23208;BMP180;11773;52.570;13.052;2023-04-15T00:14:49;100305.00;;;14.80
23208;BMP180;11773;52.570;13.052;2023-04-15T00:17:19;100298.00;;;14.80
23208;BMP180;11773;52.570;13.052;2023-04-15T00:19:49;100317.00;;;14.80
23208;BMP180;11773;52.570;13.052;2023-04-15T00:22:18;100311.00;;;14.80
23208;BMP180;11773;52.570;13.052;2023-04-15T00:24:48;100304.00;;;14.80
23208;BMP180;11773;52.570;13.052;2023-04-15T00:27:17;100295.00;;;14.80
23208;BMP180;11773;52.570;13.052;2023-04-15T00:29:47;100302.00;;;14.80
23208;BMP180;11773;52.570;13.052;2023-04-15T00:32:17;100288.00;;;14.80
23208;BMP180;11773;52.570;13.052;2023-04-15T00:34:47;100287.00;;;14.80
23208;BMP180;11773;52.570;13.052;2023-04-15T00:37:17;100284.00;;;14.80
23208;BMP180;11773;52.570;13.052;2023-04-15T00:39:46;100294.00;;;14.80
23208;BMP180;11773;52.570;13.052;2023-04-15T00:42:17;100282.00;;;14.80
23208;BMP180;11773;52.570;13.052;2023-04-15T00:44:49;100302.00;;;14.80
23208;BMP180;11773;52.570;13.052;2023-04-15T00:47:20;100288.00;;;14.80
23208;BMP180;11773;52.570;13.052;2023-04-15T00:49:50;100289.00;;;14.80
23208;BMP180;11773;52.570;13.052;2023-04-15T00:52:19;100292.00;;;14.90
23208;BMP180;11773;52.570;13.052;2023-04-15T00:54:49;100285.00;;;14.90
23208;BMP180;11773;52.570;13.052;2023-04-15T00:57:22;100287.00;;;14.90
23208;BMP180;11773;52.570;13.052;2023-04-15T00:59:52;100284.00;;;14.90
23208;BMP180;11773;52.570;13.052;2023-04-15T01:02:24;100285.00;;;14.90
23208;BMP180;11773;52.570;13.052;2023-04-15T01:04:55;100290.00;;;14.90
23208;BMP180;11773;52.570;13.052;2023-04-15T01:07:25;100280.00;;;14.90
23208;BMP180;11773;52.570;13.052;2023-04-15T01:09:55;100282.00;;;14.90
23208;BMP180;11773;52.570;13.052;2023-04-15T01:12:26;100279.00;;;14.90
23208;BMP180;11773;52.570;13.052;2023-04-15T01:14:56;100273.00;;;14.90
23208;BMP180;11773;52.570;13.052;2023-04-15T01:17:27;100275.00;;;14.90
23208;BMP180;11773;52.570;13.052;2023-04-15T01:19:57;100279.00;;;14.90
23208;BMP180;11773;52.570;13.052;2023-04-15T01:22:27;100274.00;;;14.90
23208;BMP180;11773;52.570;13.052;2023-04-15T01:25:08;100269.00;;;14.90
23208;BMP180;11773;52.570;13.052;2023-04-15T01:27:39;100272.00;;;14.90
23208;BMP180;11773;52.570;13.052;2023-04-15T01:30:10;100281.00;;;14.90
23208;BMP180;11773;52.570;13.052;2023-04-15T01:32:39;100276.00;;;14.90
23208;BMP180;11773;52.570;13.052;2023-04-15T01:35:10;100278.00;;;14.90
23208;BMP180;11773;52.570;13.052;2023-04-15T01:37:39;100277.00;;;14.90
23208;BMP180;11773;52.570;13.052;2023-04-15T01:40:09;100275.00;;;14.90
23208;BMP180;11773;52.570;13.052;2023-04-15T01:42:39;100274.00;;;14.90
23208;BMP180;11773;52.570;13.052;2023-04-15T01:45:09;100272.00;;;14.90
23208;BMP180;11773;52.570;13.052;2023-04-15T01:47:39;100281.00;;;14.90
23208;BMP180;11773;52.570;13.052;2023-04-15T01:50:09;100263.00;;;14.90
23208;BMP180;11773;52.570;13.052;2023-04-15T01:52:39;100261.00;;;14.90
23208;BMP180;11773;52.570;13.052;2023-04-15T01:55:10;100272.00;;;14.90
23208;BMP180;11773;52.570;13.052;2023-04-15T01:57:40;100256.00;;;14.90
23208;BMP180;11773;52.570;13.052;2023-04-15T02:00:09;100257.00;;;14.90
23208;BMP180;11773;52.570;13.052;2023-04-15T02:02:39;100263.00;;;14.90
23208;BMP180;11773;52.570;13.052;2023-04-15T02:05:09;100265.00;;;14.90
23208;BMP180;11773;52.570;13.052;2023-04-15T02:07:39;100256.00;;;14.90
23208;BMP180;11773;52.570;13.052;2023-04-15T02:10:09;100265.00;;;14.90
23208;BMP180;11773;52.570;13.052;2023-04-15T02:12:40;100260.00;;;15.00
23208;BMP180;11773;52.570;13.052;2023-04-15T02:15:10;100255.00;;;14.90
23208;BMP180;11773;52.570;13.052;2023-04-15T02:17:40;100264.00;;;15.00
23208;BMP180;11773;52.570;13.052;2023-04-15T02:20:11;100250.00;;;15.00
23208;BMP180;11773;52.570;13.052;2023-04-15T02:22:41;100256.00;;;15.00
23208;BMP180;11773;52.570;13.052;2023-04-15T02:25:10;100248.00;;;15.00
23208;BMP180;11773;52.570;13.052;2023-04-15T02:27:40;100250.00;;;15.00
23208;BMP180;11773;52.570;13.052;2023-04-15T02:30:10;100252.00;;;15.00
23208;BMP180;11773;52.570;13.052;2023-04-15T02:32:41;100249.00;;;14.90
23208;BMP180;11773;52.570;13.052;2023-04-15T02:35:12;100239.00;;;15.00
23208;BMP180;11773;52.570;13.052;2023-04-15T02:37:42;100250.00;;;14.90
23208;BMP180;11773;52.570;13.052;2023-04-15T02:40:13;100260.00;;;14.90
23208;BMP180;11773;52.570;13.052;2023-04-15T02:42:43;100251.00;;;14.90
23208;BMP180;11773;52.570;13.052;2023-04-15T02:45:12;100258.00;;;14.90
23208;BMP180;11773;52.570;13.052;2023-04-15T02:47:42;100261.00;;;14.90
23208;BMP180;11773;52.570;13.052;2023-04-15T02:50:14;100254.00;;;14.90
23208;BMP180;11773;52.570;13.052;2023-04-15T02:52:44;100256.00;;;14.90
23208;BMP180;11773;52.570;13.052;2023-04-15T02:55:14;100253.00;;;14.90
23208;BMP180;11773;52.570;13.052;2023-04-15T02:57:45;100251.00;;;14.90
23208;BMP180;11773;52.570;13.052;2023-04-15T03:00:14;100250.00;;;14.80
23208;BMP180;11773;52.570;13.052;2023-04-15T03:02:45;100256.00;;;14.80
23208;BMP180;11773;52.570;13.052;2023-04-15T03:05:15;100252.00;;;14.80
23208;BMP180;11773;52.570;13.052;2023-04-15T03:07:45;100251.00;;;14.80
23208;BMP180;11773;52.570;13.052;2023-04-15T03:10:14;100254.00;;;14.80
23208;BMP180;11773;52.570;13.052;2023-04-15T03:12:44;100269.00;;;14.70
23208;BMP180;11773;52.570;13.052;2023-04-15T03:15:13;100258.00;;;14.70
23208;BMP180;11773;52.570;13.052;2023-04-15T03:17:44;100271.00;;;14.70
23208;BMP180;11773;52.570;13.052;2023-04-15T03:20:13;100269.00;;;14.80
23208;BMP180;11773;52.570;13.052;2023-04-15T03:22:43;100252.00;;;14.70
23208;BMP180;11773;52.570;13.052;2023-04-15T03:25:12;100254.00;;;14.70
23208;BMP180;11773;52.570;13.052;2023-04-15T03:27:42;100254.00;;;14.70
23208;BMP180;11773;52.570;13.052;2023-04-15T03:30:12;100264.00;;;14.70
23208;BMP180;11773;52.570;13.052;2023-04-15T03:32:41;100253.00;;;14.70
23208;BMP180;11773;52.570;13.052;2023-04-15T03:35:11;100253.00;;;14.60
23208;BMP180;11773;52.570;13.052;2023-04-15T03:37:40;100252.00;;;14.60
23208;BMP180;11773;52.570;13.052;2023-04-15T03:40:10;100262.00;;;14.60
23208;BMP180;11773;52.570;13.052;2023-04-15T03:42:40;100249.00;;;14.60
23208;BMP180;11773;52.570;13.052;2023-04-15T03:45:10;100257.00;;;14.60
23208;BMP180;11773;52.570;13.052;2023-04-15T03:47:39;100266.00;;;14.60
23208;BMP180;11773;52.570;13.052;2023-04-15T03:50:09;100254.00;;;14.60
23208;BMP180;11773;52.570;13.052;2023-04-15T03:52:39;100256.00;;;14.60
23208;BMP180;11773;52.570;13.052;2023-04-15T03:55:08;100252.00;;;14.60
23208;BMP180;11773;52.570;13.052;2023-04-15T03:57:38;100258.00;;;14.60
23208;BMP180;11773;52.570;13.052;2023-04-15T04:00:09;100254.00;;;14.60
23208;BMP180;11773;52.570;13.052;2023-04-15T04:02:39;100268.00;;;14.70
23208;BMP180;11773;52.570;13.052;2023-04-15T04:05:09;100251.00;;;14.70
23208;BMP180;11773;52.570;13.052;2023-04-15T04:07:38;100251.00;;;14.70
23208;BMP180;11773;52.570;13.052;2023-04-15T04:10:08;100260.00;;;14.70
23208;BMP180;11773;52.570;13.052;2023-04-15T04:12:38;100250.00;;;14.70
23208;BMP180;11773;52.570;13.052;2023-04-15T04:15:08;100260.00;;;14.70
23208;BMP180;11773;52.570;13.052;2023-04-15T04:17:37;100273.00;;;14.70
23208;BMP180;11773;52.570;13.052;2023-04-15T04:20:07;100249.00;;;14.70
23208;BMP180;11773;52.570;13.052;2023-04-15T04:22:39;100260.00;;;14.70
23208;BMP180;11773;52.570;13.052;2023-04-15T04:25:09;100260.00;;;14.70
23208;BMP180;11773;52.570;13.052;2023-04-15T04:27:39;100261.00;;;14.70
23208;BMP180;11773;52.570;13.052;2023-04-15T04:30:08;100259.00;;;14.70
23208;BMP180;11773;52.570;13.052;2023-04-15T04:32:38;100259.00;;;14.70
23208;BMP180;11773;52.570;13.052;2023-04-15T04:35:08;100257.00;;;14.70
23208;BMP180;11773;52.570;13.052;2023-04-15T04:37:38;100270.00;;;14.70
23208;BMP180;11773;52.570;13.052;2023-04-15T04:40:09;100268.00;;;14.70
23208;BMP180;11773;52.570;13.052;2023-04-15T04:42:38;100268.00;;;14.70
23208;BMP180;11773;52.570;13.052;2023-04-15T04:45:08;100265.00;;;14.70
23208;BMP180;11773;52.570;13.052;2023-04-15T04:47:38;100266.00;;;14.70
23208;BMP180;11773;52.570;13.052;2023-04-15T04:50:09;100270.00;;;14.70
23208;BMP180;11773;52.570;13.052;2023-04-15T04:52:39;100268.00;;;14.70
23208;BMP180;11773;52.570;13.052;2023-04-15T04:55:09;100274.00;;;14.70
23208;BMP180;11773;52.570;13.052;2023-04-15T04:57:38;100282.00;;;14.70
23208;BMP180;11773;52.570;13.052;2023-04-15T05:00:09;100280.00;;;14.70
23208;BMP180;11773;52.570;13.052;2023-04-15T05:02:40;100278.00;;;14.70
23208;BMP180;11773;52.570;13.052;2023-04-15T05:05:11;100282.00;;;14.70
23208;BMP180;11773;52.570;13.052;2023-04-15T05:07:41;100285.00;;;14.70
23208;BMP180;11773;52.570;13.052;2023-04-15T05:10:10;100279.00;;;14.70
23208;BMP180;11773;52.570;13.052;2023-04-15T05:12:42;100286.00;;;14.70
23208;BMP180;11773;52.570;13.052;2023-04-15T05:15:11;100296.00;;;14.70
23208;BMP180;11773;52.570;13.052;2023-04-15T05:17:41;100293.00;;;14.70
23208;BMP180;11773;52.570;13.052;2023-04-15T05:20:11;100305.00;;;14.70
23208;BMP180;11773;52.570;13.052;2023-04-15T05:22:41;100292.00;;;14.70
23208;BMP180;11773;52.570;13.052;2023-04-15T05:25:10;100307.00;;;14.80
23208;BMP180;11773;52.570;13.052;2023-04-15T05:27:40;100295.00;;;14.80
23208;BMP180;11773;52.570;13.052;2023-04-15T05:30:09;100293.00;;;14.80
23208;BMP180;11773;52.570;13.052;2023-04-15T05:32:41;100292.00;;;14.80
23208;BMP180;11773;52.570;13.052;2023-04-15T05:35:10;100308.00;;;14.90
23208;BMP180;11773;52.570;13.052;2023-04-15T05:37:40;100287.00;;;14.90
23208;BMP180;11773;52.570;13.052;2023-04-15T05:40:10;100292.00;;;14.90
23208;BMP180;11773;52.570;13.052;2023-04-15T05:42:39;100300.00;;;14.90
23208;BMP180;11773;52.570;13.052;2023-04-15T05:45:09;100305.00;;;14.90
23208;BMP180;11773;52.570;13.052;2023-04-15T05:47:39;100303.00;;;14.90
23208;BMP180;11773;52.570;13.052;2023-04-15T05:50:09;100301.00;;;14.90
23208;BMP180;11773;52.570;13.052;2023-04-15T05:52:39;100310.00;;;14.90
23208;BMP180;11773;52.570;13.052;2023-04-15T05:55:09;100316.00;;;14.90
23208;BMP180;11773;52.570;13.052;2023-04-15T05:57:39;100309.00;;;15.00
23208;BMP180;11773;52.570;13.052;2023-04-15T06:00:09;100315.00;;;15.00
23208;BMP180;11773;52.570;13.052;2023-04-15T06:02:38;100321.00;;;15.00
23208;BMP180;11773;52.570;13.052;2023-04-15T06:05:09;100315.00;;;15.00
23208;BMP180;11773;52.570;13.052;2023-04-15T06:07:39;100323.00;;;15.00
23208;BMP180;11773;52.570;13.052;2023-04-15T06:10:09;100316.00;;;15.00
23208;BMP180;11773;52.570;13.052;2023-04-15T06:12:38;100316.00;;;15.00
23208;BMP180;11773;52.570;13.052;2023-04-15T06:15:08;100310.00;;;15.00
23208;BMP180;11773;52.570;13.052;2023-04-15T06:17:38;100320.00;;;15.10
23208;BMP180;11773;52.570;13.052;2023-04-15T06:20:08;100319.00;;;15.10
23208;BMP180;11773;52.570;13.052;2023-04-15T06:22:38;100313.00;;;15.10
23208;BMP180;11773;52.570;13.052;2023-04-15T06:25:08;100305.00;;;15.10
23208;BMP180;11773;52.570;13.052;2023-04-15T06:27:38;100314.00;;;15.10
23208;BMP180;11773;52.570;13.052;2023-04-15T06:30:08;100316.00;;;15.10
23208;BMP180;11773;52.570;13.052;2023-04-15T06:32:38;100306.00;;;15.10
23208;BMP180;11773;52.570;13.052;2023-04-15T06:35:08;100304.00;;;15.20
23208;BMP180;11773;52.570;13.052;2023-04-15T06:37:37;100324.00;;;15.20
23208;BMP180;11773;52.570;13.052;2023-04-15T06:40:08;100331.00;;;15.20
23208;BMP180;11773;52.570;13.052;2023-04-15T06:42:38;100324.00;;;15.20
23208;BMP180;11773;52.570;13.052;2023-04-15T06:45:08;100318.00;;;15.30
23208;BMP180;11773;52.570;13.052;2023-04-15T06:47:38;100317.00;;;15.30
23208;BMP180;11773;52.570;13.052;2023-04-15T06:50:09;100320.00;;;15.40
23208;BMP180;11773;52.570;13.052;2023-04-15T06:52:39;100326.00;;;15.40
23208;BMP180;11773;52.570;13.052;2023-04-15T06:55:08;100325.00;;;15.40
23208;BMP180;11773;52.570;13.052;2023-04-15T06:57:38;100326.00;;;15.40
23208;BMP180;11773;52.570;13.052;2023-04-15T07:00:09;100332.00;;;15.50
23208;BMP180;11773;52.570;13.052;2023-04-15T07:02:39;100336.00;;;15.50
23208;BMP180;11773;52.570;13.052;2023-04-15T07:05:09;100335.00;;;15.60
23208;BMP180;11773;52.570;13.052;2023-04-15T07:07:38;100322.00;;;15.60
23208;BMP180;11773;52.570;13.052;2023-04-15T07:10:08;100337.00;;;15.70
23208;BMP180;11773;52.570;13.052;2023-04-15T07:12:39;100338.00;;;15.70
23208;BMP180;11773;52.570;13.052;2023-04-15T07:15:09;100342.00;;;15.80
23208;BMP180;11773;52.570;13.052;2023-04-15T07:17:40;100355.00;;;15.90
23208;BMP180;11773;52.570;13.052;2023-04-15T07:20:11;100346.00;;;15.90
23208;BMP180;11773;52.570;13.052;2023-04-15T07:22:41;100357.00;;;16.00
23208;BMP180;11773;52.570;13.052;2023-04-15T07:25:11;100367.00;;;16.10
23208;BMP180;11773;52.570;13.052;2023-04-15T07:27:40;100364.00;;;16.10
23208;BMP180;11773;52.570;13.052;2023-04-15T07:30:10;100370.00;;;16.20
23208;BMP180;11773;52.570;13.052;2023-04-15T07:32:40;100367.00;;;16.20
23208;BMP180;11773;52.570;13.052;2023-04-15T07:35:10;100366.00;;;16.20
23208;BMP180;11773;52.570;13.052;2023-04-15T07:37:40;100369.00;;;16.30
23208;BMP180;11773;52.570;13.052;2023-04-15T07:40:11;100372.00;;;16.30
23208;BMP180;11773;52.570;13.052;2023-04-15T07:42:42;100394.00;;;16.30
23208;BMP180;11773;52.570;13.052;2023-04-15T07:45:12;100384.00;;;16.30
23208;BMP180;11773;52.570;13.052;2023-04-15T07:47:42;100381.00;;;16.40
23208;BMP180;11773;52.570;13.052;2023-04-15T07:50:11;100386.00;;;16.40
23208;BMP180;11773;52.570;13.052;2023-04-15T07:52:41;100379.00;;;16.40
23208;BMP180;11773;52.570;13.052;2023-04-15T07:55:10;100392.00;;;16.40
23208;BMP180;11773;52.570;13.052;2023-04-15T07:57:40;100398.00;;;16.40
23208;BMP180;11773;52.570;13.052;2023-04-15T08:00:10;100394.00;;;16.40
23208;BMP180;11773;52.570;13.052;2023-04-15T08:02:40;100391.00;;;16.40
23208;BMP180;11773;52.570;13.052;2023-04-15T08:05:11;100391.00;;;16.40
23208;BMP180;11773;52.570;13.052;2023-04-15T08:07:41;100394.00;;;16.40
23208;BMP180;11773;52.570;13.052;2023-04-15T08:10:11;100386.00;;;16.40
23208;BMP180;11773;52.570;13.052;2023-04-15T08:12:40;100390.00;;;16.40
23208;BMP180;11773;52.570;13.052;2023-04-15T08:15:10;100399.00;;;16.40
23208;BMP180;11773;52.570;13.052;2023-04-15T08:17:40;100401.00;;;16.40
23208;BMP180;11773;52.570;13.052;2023-04-15T08:20:10;100408.00;;;16.40
23208;BMP180;11773;52.570;13.052;2023-04-15T08:22:40;100401.00;;;16.40
23208;BMP180;11773;52.570;13.052;2023-04-15T08:25:10;100397.00;;;16.40
23208;BMP180;11773;52.570;13.052;2023-04-15T08:27:40;100405.00;;;16.40
23208;BMP180;11773;52.570;13.052;2023-04-15T08:30:10;100402.00;;;16.50
23208;BMP180;11773;52.570;13.052;2023-04-15T08:32:41;100404.00;;;16.50
23208;BMP180;11773;52.570;13.052;2023-04-15T08:35:11;100406.00;;;16.50
23208;BMP180;11773;52.570;13.052;2023-04-15T08:37:41;100413.00;;;16.50
23208;BMP180;11773;52.570;13.052;2023-04-15T08:40:11;100408.00;;;16.50
23208;BMP180;11773;52.570;13.052;2023-04-15T08:42:49;100417.00;;;16.50
23208;BMP180;11773;52.570;13.052;2023-04-15T08:45:21;100406.00;;;16.50
23208;BMP180;11773;52.570;13.052;2023-04-15T08:47:55;100398.00;;;16.50
23208;BMP180;11773;52.570;13.052;2023-04-15T08:50:25;100409.00;;;16.50
23208;BMP180;11773;52.570;13.052;2023-04-15T08:53:01;100412.00;;;16.50
23208;BMP180;11773;52.570;13.052;2023-04-15T08:55:32;100429.00;;;16.50
23208;BMP180;11773;52.570;13.052;2023-04-15T08:58:05;100423.00;;;16.50
23208;BMP180;11773;52.570;13.052;2023-04-15T09:00:35;100426.00;;;16.50
23208;BMP180;11773;52.570;13.052;2023-04-15T09:03:07;100422.00;;;16.50
23208;BMP180;11773;52.570;13.052;2023-04-15T09:05:38;100435.00;;;16.50
23208;BMP180;11773;52.570;13.052;2023-04-15T09:08:07;100437.00;;;16.50
23208;BMP180;11773;52.570;13.052;2023-04-15T09:10:37;100437.00;;;16.50
23208;BMP180;11773;52.570;13.052;2023-04-15T09:13:07;100448.00;;;16.50
23208;BMP180;11773;52.570;13.052;2023-04-15T09:15:38;100439.00;;;16.50
23208;BMP180;11773;52.570;13.052;2023-04-15T09:18:10;100440.00;;;16.50
23208;BMP180;11773;52.570;13.052;2023-04-15T09:20:42;100431.00;;;16.50
23208;BMP180;11773;52.570;13.052;2023-04-15T09:23:13;100441.00;;;16.60
23208;BMP180;11773;52.570;13.052;2023-04-15T09:25:45;100442.00;;;16.60
23208;BMP180;11773;52.570;13.052;2023-04-15T09:28:22;100447.00;;;16.60
23208;BMP180;11773;52.570;13.052;2023-04-15T09:30:54;100444.00;;;16.60
23208;BMP180;11773;52.570;13.052;2023-04-15T09:33:23;100443.00;;;16.60
23208;BMP180;11773;52.570;13.052;2023-04-15T09:36:02;100445.00;;;16.60
23208;BMP180;11773;52.570;13.052;2023-04-15T09:38:35;100457.00;;;16.60
23208;BMP180;11773;52.570;13.052;2023-04-15T09:41:15;100454.00;;;16.60
23208;BMP180;11773;52.570;13.052;2023-04-15T09:43:40;100444.00;;;16.60
23208;BMP180;11773;52.570;13.052;2023-04-15T09:46:10;100465.00;;;16.70
23208;BMP180;11773;52.570;13.052;2023-04-15T09:48:40;100458.00;;;16.70
23208;BMP180;11773;52.570;13.052;2023-04-15T09:51:09;100453.00;;;16.70
23208;BMP180;11773;52.570;13.052;2023-04-15T09:53:39;100454.00;;;16.70
23208;BMP180;11773;52.570;13.052;2023-04-15T09:56:08;100465.00;;;16.80
23208;BMP180;11773;52.570;13.052;2023-04-15T09:58:38;100456.00;;;16.80
23208;BMP180;11773;52.570;13.052;2023-04-15T10:01:09;100466.00;;;16.70
23208;BMP180;11773;52.570;13.052;2023-04-15T10:03:40;100469.00;;;16.70
23208;BMP180;11773;52.570;13.052;2023-04-15T10:06:11;100467.00;;;16.70
23208;BMP180;11773;52.570;13.052;2023-04-15T10:08:41;100471.00;;;16.70
23208;BMP180;11773;52.570;13.052;2023-04-15T10:11:12;100472.00;;;16.70
23208;BMP180;11773;52.570;13.052;2023-04-15T10:13:42;100471.00;;;16.70
23208;BMP180;11773;52.570;13.052;2023-04-15T10:16:19;100483.00;;;16.70
23208;BMP180;11773;52.570;13.052;2023-04-15T10:18:55;100491.00;;;16.80
23208;BMP180;11773;52.570;13.052;2023-04-15T10:21:27;100480.00;;;16.80
23208;BMP180;11773;52.570;13.052;2023-04-15T10:23:58;100495.00;;;16.80
23208;BMP180;11773;52.570;13.052;2023-04-15T10:26:30;100478.00;;;16.80
23208;BMP180;11773;52.570;13.052;2023-04-15T10:28:59;100486.00;;;16.80
23208;BMP180;11773;52.570;13.052;2023-04-15T10:31:30;100487.00;;;16.80
23208;BMP180;11773;52.570;13.052;2023-04-15T10:34:00;100483.00;;;16.80
23208;BMP180;11773;52.570;13.052;2023-04-15T10:36:32;100492.00;;;16.80
23208;BMP180;11773;52.570;13.052;2023-04-15T10:39:02;100494.00;;;16.80
23208;BMP180;11773;52.570;13.052;2023-04-15T10:41:33;100493.00;;;16.80
23208;BMP180;11773;52.570;13.052;2023-04-15T10:44:04;100503.00;;;16.80
23208;BMP180;11773;52.570;13.052;2023-04-15T10:46:43;100498.00;;;16.80
23208;BMP180;11773;52.570;13.052;2023-04-15T10:49:16;100501.00;;;16.80
23208;BMP180;11773;52.570;13.052;2023-04-15T10:51:52;100506.00;;;16.80
23208;BMP180;11773;52.570;13.052;2023-04-15T10:57:06;100497.00;;;16.90
23208;BMP180;11773;52.570;13.052;2023-04-15T11:00:08;100498.00;;;16.90
23208;BMP180;11773;52.570;13.052;2023-04-15T11:02:12;100521.00;;;16.90
23208;BMP180;11773;52.570;13.052;2023-04-15T11:04:58;100509.00;;;16.90
23208;BMP180;11773;52.570;13.052;2023-04-15T11:13:05;100528.00;;;17.00
23208;BMP180;11773;52.570;13.052;2023-04-15T11:18:34;100516.00;;;17.00
23208;BMP180;11773;52.570;13.052;2023-04-15T11:21:06;100517.00;;;17.00
23208;BMP180;11773;52.570;13.052;2023-04-15T11:23:41;100523.00;;;17.00
23208;BMP180;11773;52.570;13.052;2023-04-15T11:26:13;100526.00;;;17.00
23208;BMP180;11773;52.570;13.052;2023-04-15T11:28:45;100531.00;;;17.00
23208;BMP180;11773;52.570;13.052;2023-04-15T11:31:16;100545.00;;;17.10
23208;BMP180;11773;52.570;13.052;2023-04-15T11:33:56;100539.00;;;17.10
23208;BMP180;11773;52.570;13.052;2023-04-15T11:36:29;100537.00;;;17.10
23208;BMP180;11773;52.570;13.052;2023-04-15T11:39:00;100540.00;;;17.10
23208;BMP180;11773;52.570;13.052;2023-04-15T11:41:31;100541.00;;;17.10
23208;BMP180;11773;52.570;13.052;2023-04-15T11:44:00;100542.00;;;17.10
23208;BMP180;11773;52.570;13.052;2023-04-15T11:46:31;100551.00;;;17.10
23208;BMP180;11773;52.570;13.052;2023-04-15T11:49:00;100548.00;;;17.10
23208;BMP180;11773;52.570;13.052;2023-04-15T11:51:35;100551.00;;;17.10
23208;BMP180;11773;52.570;13.052;2023-04-15T11:54:05;100554.00;;;17.10
23208;BMP180;11773;52.570;13.052;2023-04-15T11:56:34;100560.00;;;17.10
23208;BMP180;11773;52.570;13.052;2023-04-15T11:59:04;100566.00;;;17.20
23208;BMP180;11773;52.570;13.052;2023-04-15T12:01:38;100563.00;;;17.20
23208;BMP180;11773;52.570;13.052;2023-04-15T12:04:15;100575.00;;;17.20
23208;BMP180;11773;52.570;13.052;2023-04-15T12:06:47;100577.00;;;17.20
23208;BMP180;11773;52.570;13.052;2023-04-15T12:09:17;100568.00;;;17.20
23208;BMP180;11773;52.570;13.052;2023-04-15T12:11:55;100569.00;;;17.20
23208;BMP180;11773;52.570;13.052;2023-04-15T12:14:32;100571.00;;;17.20
23208;BMP180;11773;52.570;13.052;2023-04-15T12:17:04;100572.00;;;17.20
23208;BMP180;11773;52.570;13.052;2023-04-15T12:19:41;100588.00;;;17.20
23208;BMP180;11773;52.570;13.052;2023-04-15T12:22:16;100571.00;;;17.20
23208;BMP180;11773;52.570;13.052;2023-04-15T12:24:47;100588.00;;;17.20
23208;BMP180;11773;52.570;13.052;2023-04-15T12:27:18;100583.00;;;17.20
23208;BMP180;11773;52.570;13.052;2023-04-15T12:29:48;100596.00;;;17.20
23208;BMP180;11773;52.570;13.052;2023-04-15T12:32:18;100598.00;;;17.20
23208;BMP180;11773;52.570;13.052;2023-04-15T12:34:52;100597.00;;;17.30
23208;BMP180;11773;52.570;13.052;2023-04-15T12:37:22;100592.00;;;17.20
23208;BMP180;11773;52.570;13.052;2023-04-15T12:39:53;100601.00;;;17.30
23208;BMP180;11773;52.570;13.052;2023-04-15T12:42:22;100600.00;;;17.30
23208;BMP180;11773;52.570;13.052;2023-04-15T12:44:52;100597.00;;;17.30
23208;BMP180;11773;52.570;13.052;2023-04-15T12:47:22;100623.00;;;17.30
23208;BMP180;11773;52.570;13.052;2023-04-15T12:49:51;100610.00;;;17.30
23208;BMP180;11773;52.570;13.052;2023-04-15T12:52:21;100615.00;;;17.30
23208;BMP180;11773;52.570;13.052;2023-04-15T12:54:52;100614.00;;;17.30
23208;BMP180;11773;52.570;13.052;2023-04-15T12:57:22;100614.00;;;17.30
23208;BMP180;11773;52.570;13.052;2023-04-15T12:59:51;100625.00;;;17.30
23208;BMP180;11773;52.570;13.052;2023-04-15T13:02:21;100620.00;;;17.30
23208;BMP180;11773;52.570;13.052;2023-04-15T13:04:53;100616.00;;;17.30
23208;BMP180;11773;52.570;13.052;2023-04-15T13:07:26;100619.00;;;17.30
23208;BMP180;11773;52.570;13.052;2023-04-15T13:09:55;100624.00;;;17.30
23208;BMP180;11773;52.570;13.052;2023-04-15T13:12:25;100624.00;;;17.30
23208;BMP180;11773;52.570;13.052;2023-04-15T13:14:55;100625.00;;;17.30
23208;BMP180;11773;52.570;13.052;2023-04-15T13:17:25;100629.00;;;17.30
23208;BMP180;11773;52.570;13.052;2023-04-15T13:19:54;100632.00;;;17.30
23208;BMP180;11773;52.570;13.052;2023-04-15T13:22:24;100634.00;;;17.30
23208;BMP180;11773;52.570;13.052;2023-04-15T13:24:54;100642.00;;;17.30
23208;BMP180;11773;52.570;13.052;2023-04-15T13:27:23;100638.00;;;17.30
23208;BMP180;11773;52.570;13.052;2023-04-15T13:29:54;100634.00;;;17.30
23208;BMP180;11773;52.570;13.052;2023-04-15T13:32:24;100630.00;;;17.30
23208;BMP180;11773;52.570;13.052;2023-04-15T13:34:54;100632.00;;;17.30
23208;BMP180;11773;52.570;13.052;2023-04-15T13:37:27;100636.00;;;17.40
23208;BMP180;11773;52.570;13.052;2023-04-15T13:39:57;100650.00;;;17.40
23208;BMP180;11773;52.570;13.052;2023-04-15T13:42:26;100648.00;;;17.40
23208;BMP180;11773;52.570;13.052;2023-04-15T13:44:56;100637.00;;;17.30
23208;BMP180;11773;52.570;13.052;2023-04-15T13:47:26;100654.00;;;17.30
23208;BMP180;11773;52.570;13.052;2023-04-15T13:49:55;100654.00;;;17.30
23208;BMP180;11773;52.570;13.052;2023-04-15T13:52:25;100649.00;;;17.30
23208;BMP180;11773;52.570;13.052;2023-04-15T13:54:54;100656.00;;;17.30
23208;BMP180;11773;52.570;13.052;2023-04-15T13:57:26;100676.00;;;17.30
23208;BMP180;11773;52.570;13.052;2023-04-15T13:59:56;100657.00;;;17.30
23208;BMP180;11773;52.570;13.052;2023-04-15T14:02:26;100663.00;;;17.20
23208;BMP180;11773;52.570;13.052;2023-04-15T14:04:55;100663.00;;;17.20
23208;BMP180;11773;52.570;13.052;2023-04-15T14:07:25;100667.00;;;17.20
23208;BMP180;11773;52.570;13.052;2023-04-15T14:09:55;100674.00;;;17.20
23208;BMP180;11773;52.570;13.052;2023-04-15T14:12:24;100667.00;;;17.20
23208;BMP180;11773;52.570;13.052;2023-04-15T14:14:54;100675.00;;;17.20